Th15 — LI3239 — position and weather

sailwx.info

Track history (hours):
 
Tides and Currents Weather Stations Pressure Air Temp Water Temp Dewpoint Dewpoint Depression Visibility Wind Speed Wind Dir Waves Ship Positions

Th15

Last reported at 2017-Sep-26 12:38 UTC. Time now 2017-Dec-18 03:26 UTC.
Position N 70°15' E 019°30'.
Warning: this ship's position is months out of date.

Length 6 m.

Type: Pleasure craft. MMSI: 258087650.

Date/timePositionNaut miles runAvg speedWind from/ knotsBaromVisibWave heightAir tempDewpointWater temp
2017-Sep-26 12:38N 70°15' E 019°30'0 0.0
2017-Sep-26 12:29N 70°15' E 019°30'0 0.0
2017-Sep-26 07:57N 70°15' E 019°30'0 0.0
2017-Sep-26 07:27N 70°15' E 019°30'0 0.0
2017-Sep-26 07:00N 70°15' E 019°30'0 0.0
2017-Sep-26 06:30N 70°15' E 019°30'0 0.0
2017-Sep-24 17:59N 70°15' E 019°30'0 0.0
2017-Sep-24 16:55N 70°15' E 019°30'1 1.7
2017-Sep-24 16:29N 70°15' E 019°28'3 5.3
2017-Sep-24 16:00N 70°16' E 019°22'2 4.5
2017-Sep-24 15:30N 70°17' E 019°16'1 1.9
2017-Sep-24 14:59N 70°18' E 019°14'2 3.2
2017-Sep-24 14:29N 70°19' E 019°10'1 3.1
2017-Sep-24 14:00N 70°19' E 019°05'0 0.4
2017-Sep-24 13:30N 70°19' E 019°05'0 0.4
2017-Sep-24 13:00N 70°19' E 019°05'0 0.6
2017-Sep-24 12:29N 70°19' E 019°05'0 0.3
2017-Sep-24 12:00N 70°19' E 019°04'0 0.4
2017-Sep-24 11:29N 70°19' E 019°05'0 0.9
2017-Sep-24 11:00N 70°19' E 019°06'0 0.8
2017-Sep-24 10:30N 70°19' E 019°04'0 0.9
2017-Sep-24 10:00N 70°19' E 019°04'0 0.4
2017-Sep-24 09:28N 70°18' E 019°03'1 1.4
2017-Sep-24 09:00N 70°18' E 019°01'0 0.2
2017-Sep-24 08:30N 70°18' E 019°01'1 2.8
2017-Sep-24 08:00N 70°17' E 018°58'1 1.2
2017-Sep-24 07:29N 70°17' E 018°57'0 0.2
2017-Sep-24 07:00N 70°17' E 018°57'1 1.2
2017-Sep-24 06:30N 70°16' E 018°57'0 0.7
2017-Sep-24 05:59N 70°16' E 018°57'1 1.4
2017-Sep-24 05:30N 70°16' E 018°59'715.2
2017-Sep-24 05:00N 70°15' E 019°21'  
2017-Sep-21 16:58N 70°15' E 019°30'1 3.0
2017-Sep-21 16:29N 70°16' E 019°31'1 2.3
2017-Sep-21 16:00N 70°17' E 019°33'3 5.9
2017-Sep-21 15:30N 70°20' E 019°30'1 3.0
2017-Sep-21 15:00N 70°21' E 019°27'0 0.6
2017-Sep-21 14:28N 70°21' E 019°28'0 0.5
2017-Sep-21 13:59N 70°21' E 019°27'0 0.6
2017-Sep-21 13:29N 70°21' E 019°28'0 0.5
2017-Sep-21 12:59N 70°22' E 019°27'0 0.5
2017-Sep-21 12:30N 70°22' E 019°27'0 0.9
2017-Sep-21 11:58N 70°22' E 019°29'0 0.7
2017-Sep-21 11:28N 70°22' E 019°28'0 0.5
2017-Sep-21 11:00N 70°22' E 019°27'0 0.1
2017-Sep-21 10:30N 70°22' E 019°27'0 0.6
2017-Sep-21 09:58N 70°22' E 019°27'0 0.4
2017-Sep-21 09:30N 70°22' E 019°27'1 1.3
2017-Sep-21 09:00N 70°22' E 019°27'0 0.8
2017-Sep-21 08:30N 70°22' E 019°27'1 1.8
2017-Sep-21 08:00N 70°21' E 019°27'712.5
2017-Sep-21 07:29N 70°15' E 019°30'0 0.0
2017-Sep-19 17:06N 70°15' E 019°30'0 0.5
2017-Sep-19 16:55N 70°15' E 019°30'0 0.0
2017-Sep-19 13:15N 70°15' E 019°30'1 4.7
2017-Sep-19 13:00N 70°16' E 019°30'1 2.6
2017-Sep-19 12:30N 70°17' E 019°33'0 0.0
2017-Sep-19 11:58N 70°17' E 019°33'0 0.3
2017-Sep-19 11:28N 70°17' E 019°33'0 1.0
2017-Sep-19 10:59N 70°17' E 019°33'0 0.7
2017-Sep-19 10:28N 70°17' E 019°33'0 0.2
2017-Sep-19 09:58N 70°17' E 019°33'0 0.4
2017-Sep-19 09:30N 70°17' E 019°33'1 1.1
2017-Sep-19 09:00N 70°16' E 019°33'1 1.5
2017-Sep-19 08:30N 70°17' E 019°32'0 0.4
2017-Sep-19 07:59N 70°17' E 019°32'0 0.7
2017-Sep-19 07:28N 70°17' E 019°33'0 0.6
2017-Sep-19 06:58N 70°17' E 019°32'0 0.4
2017-Sep-19 06:28N 70°17' E 019°32'2 3.4
2017-Sep-19 06:00N 70°17' E 019°28'3 5.5
2017-Sep-19 05:29N 70°15' E 019°30'0 0.0
2017-Sep-18 16:18N 70°15' E 019°30'2 4.6
2017-Sep-18 15:58N 70°13' E 019°30'0 0.6
2017-Sep-18 15:29N 70°13' E 019°29'2 3.4
2017-Sep-18 14:59N 70°14' E 019°25'0 0.3
2017-Sep-18 14:30N 70°14' E 019°25'2 1.6
2017-Sep-18 13:22N 70°15' E 019°30'3 7.6
2017-Sep-18 13:00N 70°16' E 019°23'0 0.8
2017-Sep-18 12:30N 70°16' E 019°22'1 2.0
2017-Sep-18 11:59N 70°15' E 019°24'1 1.6
2017-Sep-18 11:30N 70°15' E 019°25'3 5.1
2017-Sep-18 11:00N 70°17' E 019°28'3 6.4
2017-Sep-18 10:29N 70°20' E 019°28'2 3.5
2017-Sep-18 10:00N 70°22' E 019°27'0 0.4
2017-Sep-18 09:30N 70°22' E 019°27'0 0.2
2017-Sep-18 08:58N 70°22' E 019°27'0 0.4
2017-Sep-18 08:29N 70°22' E 019°27'0 0.4
2017-Sep-18 08:00N 70°22' E 019°28'612.0
2017-Sep-18 07:30N 70°16' E 019°28'2 0.0
2017-Sep-16 17:38N 70°15' E 019°30'0 0.0
2017-Sep-16 15:50N 70°15' E 019°30'0 1.4
2017-Sep-16 15:30N 70°14' E 019°29'610.8
2017-Sep-16 14:59N 70°19' E 019°19'2 3.2
2017-Sep-16 14:29N 70°19' E 019°15'0 0.9
2017-Sep-16 13:57N 70°19' E 019°16'1 1.2
2017-Sep-16 13:28N 70°19' E 019°15'0 0.9
2017-Sep-16 12:59N 70°19' E 019°16'  
Track history (hours):
 
Tides and Currents Weather Stations Pressure Air Temp Water Temp Dewpoint Dewpoint Depression Visibility Wind Speed Wind Dir Waves Ship Positions

Th15

Last reported at 2017-Sep-26 12:38 UTC. Time now 2017-Dec-18 03:26 UTC.
Position N 70°15' E 019°30'.
Warning: this ship's position is months out of date.

Length 6 m.

Type: Pleasure craft. MMSI: 258087650.

Date/timePositionNaut miles runAvg speedWind from/ knotsBaromVisibWave heightAir tempDewpointWater temp
2017-Sep-26 12:38N 70°15' E 019°30'0 0.0
2017-Sep-26 12:29N 70°15' E 019°30'0 0.0
2017-Sep-26 07:57N 70°15' E 019°30'0 0.0
2017-Sep-26 07:27N 70°15' E 019°30'0 0.0
2017-Sep-26 07:00N 70°15' E 019°30'0 0.0
2017-Sep-26 06:30N 70°15' E 019°30'0 0.0
2017-Sep-24 17:59N 70°15' E 019°30'0 0.0
2017-Sep-24 16:55N 70°15' E 019°30'1 1.7
2017-Sep-24 16:29N 70°15' E 019°28'3 5.3
2017-Sep-24 16:00N 70°16' E 019°22'2 4.5
2017-Sep-24 15:30N 70°17' E 019°16'1 1.9
2017-Sep-24 14:59N 70°18' E 019°14'2 3.2
2017-Sep-24 14:29N 70°19' E 019°10'1 3.1
2017-Sep-24 14:00N 70°19' E 019°05'0 0.4
2017-Sep-24 13:30N 70°19' E 019°05'0 0.4
2017-Sep-24 13:00N 70°19' E 019°05'0 0.6
2017-Sep-24 12:29N 70°19' E 019°05'0 0.3
2017-Sep-24 12:00N 70°19' E 019°04'0 0.4
2017-Sep-24 11:29N 70°19' E 019°05'0 0.9
2017-Sep-24 11:00N 70°19' E 019°06'0 0.8
2017-Sep-24 10:30N 70°19' E 019°04'0 0.9
2017-Sep-24 10:00N 70°19' E 019°04'0 0.4
2017-Sep-24 09:28N 70°18' E 019°03'1 1.4
2017-Sep-24 09:00N 70°18' E 019°01'0 0.2
2017-Sep-24 08:30N 70°18' E 019°01'1 2.8
2017-Sep-24 08:00N 70°17' E 018°58'1 1.2
2017-Sep-24 07:29N 70°17' E 018°57'0 0.2
2017-Sep-24 07:00N 70°17' E 018°57'1 1.2
2017-Sep-24 06:30N 70°16' E 018°57'0 0.7
2017-Sep-24 05:59N 70°16' E 018°57'1 1.4
2017-Sep-24 05:30N 70°16' E 018°59'715.2
2017-Sep-24 05:00N 70°15' E 019°21'  
2017-Sep-21 16:58N 70°15' E 019°30'1 3.0
2017-Sep-21 16:29N 70°16' E 019°31'1 2.3
2017-Sep-21 16:00N 70°17' E 019°33'3 5.9
2017-Sep-21 15:30N 70°20' E 019°30'1 3.0
2017-Sep-21 15:00N 70°21' E 019°27'0 0.6
2017-Sep-21 14:28N 70°21' E 019°28'0 0.5
2017-Sep-21 13:59N 70°21' E 019°27'0 0.6
2017-Sep-21 13:29N 70°21' E 019°28'0 0.5
2017-Sep-21 12:59N 70°22' E 019°27'0 0.5
2017-Sep-21 12:30N 70°22' E 019°27'0 0.9
2017-Sep-21 11:58N 70°22' E 019°29'0 0.7
2017-Sep-21 11:28N 70°22' E 019°28'0 0.5
2017-Sep-21 11:00N 70°22' E 019°27'0 0.1
2017-Sep-21 10:30N 70°22' E 019°27'0 0.6
2017-Sep-21 09:58N 70°22' E 019°27'0 0.4
2017-Sep-21 09:30N 70°22' E 019°27'1 1.3
2017-Sep-21 09:00N 70°22' E 019°27'0 0.8
2017-Sep-21 08:30N 70°22' E 019°27'1 1.8
2017-Sep-21 08:00N 70°21' E 019°27'712.5
2017-Sep-21 07:29N 70°15' E 019°30'0 0.0
2017-Sep-19 17:06N 70°15' E 019°30'0 0.5
2017-Sep-19 16:55N 70°15' E 019°30'0 0.0
2017-Sep-19 13:15N 70°15' E 019°30'1 4.7
2017-Sep-19 13:00N 70°16' E 019°30'1 2.6
2017-Sep-19 12:30N 70°17' E 019°33'0 0.0
2017-Sep-19 11:58N 70°17' E 019°33'0 0.3
2017-Sep-19 11:28N 70°17' E 019°33'0 1.0
2017-Sep-19 10:59N 70°17' E 019°33'0 0.7
2017-Sep-19 10:28N 70°17' E 019°33'0 0.2
2017-Sep-19 09:58N 70°17' E 019°33'0 0.4
2017-Sep-19 09:30N 70°17' E 019°33'1 1.1
2017-Sep-19 09:00N 70°16' E 019°33'1 1.5
2017-Sep-19 08:30N 70°17' E 019°32'0 0.4
2017-Sep-19 07:59N 70°17' E 019°32'0 0.7
2017-Sep-19 07:28N 70°17' E 019°33'0 0.6
2017-Sep-19 06:58N 70°17' E 019°32'0 0.4
2017-Sep-19 06:28N 70°17' E 019°32'2 3.4
2017-Sep-19 06:00N 70°17' E 019°28'3 5.5
2017-Sep-19 05:29N 70°15' E 019°30'0 0.0
2017-Sep-18 16:18N 70°15' E 019°30'2 4.6
2017-Sep-18 15:58N 70°13' E 019°30'0 0.6
2017-Sep-18 15:29N 70°13' E 019°29'2 3.4
2017-Sep-18 14:59N 70°14' E 019°25'0 0.3
2017-Sep-18 14:30N 70°14' E 019°25'2 1.6
2017-Sep-18 13:22N 70°15' E 019°30'3 7.6
2017-Sep-18 13:00N 70°16' E 019°23'0 0.8
2017-Sep-18 12:30N 70°16' E 019°22'1 2.0
2017-Sep-18 11:59N 70°15' E 019°24'1 1.6
2017-Sep-18 11:30N 70°15' E 019°25'3 5.1
2017-Sep-18 11:00N 70°17' E 019°28'3 6.4
2017-Sep-18 10:29N 70°20' E 019°28'2 3.5
2017-Sep-18 10:00N 70°22' E 019°27'0 0.4
2017-Sep-18 09:30N 70°22' E 019°27'0 0.2
2017-Sep-18 08:58N 70°22' E 019°27'0 0.4
2017-Sep-18 08:29N 70°22' E 019°27'0 0.4
2017-Sep-18 08:00N 70°22' E 019°28'612.0
2017-Sep-18 07:30N 70°16' E 019°28'2 0.0
2017-Sep-16 17:38N 70°15' E 019°30'0 0.0
2017-Sep-16 15:50N 70°15' E 019°30'0 1.4
2017-Sep-16 15:30N 70°14' E 019°29'610.8
2017-Sep-16 14:59N 70°19' E 019°19'2 3.2
2017-Sep-16 14:29N 70°19' E 019°15'0 0.9
2017-Sep-16 13:57N 70°19' E 019°16'1 1.2
2017-Sep-16 13:28N 70°19' E 019°15'0 0.9
2017-Sep-16 12:59N 70°19' E 019°16'  

Dump ship's entire track history